createdAt,value
2018-09-17T00:00:15.135Z,13.10
2018-09-17T00:02:42.321Z,13.20
2018-09-17T00:05:09.534Z,13.20
2018-09-17T00:07:36.726Z,13.10
2018-09-17T00:10:04.172Z,13.20
2018-09-17T00:12:31.354Z,13.20
2018-09-17T00:14:58.555Z,13.10
2018-09-17T00:17:25.734Z,13.10
2018-09-17T00:19:52.947Z,13.10
2018-09-17T00:22:20.127Z,13.00
2018-09-17T00:24:47.323Z,13.00
2018-09-17T00:27:14.515Z,13.00
2018-09-17T00:29:41.695Z,13.00
2018-09-17T00:32:08.887Z,12.90
2018-09-17T00:34:36.088Z,12.90
2018-09-17T00:37:03.392Z,12.90
2018-09-17T00:39:30.623Z,12.90
2018-09-17T00:41:57.804Z,12.80
2018-09-17T00:44:25.000Z,12.80
2018-09-17T00:46:52.207Z,12.80
2018-09-17T00:49:19.416Z,12.70
2018-09-17T00:51:46.634Z,12.60
2018-09-17T00:54:13.829Z,12.60
2018-09-17T00:56:41.020Z,12.60
2018-09-17T00:59:08.256Z,12.60
2018-09-17T01:01:35.476Z,12.60
2018-09-17T01:04:02.716Z,12.50
2018-09-17T01:06:29.908Z,12.50
2018-09-17T01:08:57.123Z,12.50
2018-09-17T01:11:24.315Z,12.40
2018-09-17T01:13:51.531Z,12.40
2018-09-17T01:16:18.755Z,12.30
2018-09-17T01:18:46.133Z,12.30
2018-09-17T01:21:13.366Z,12.30
2018-09-17T01:23:40.570Z,12.20
2018-09-17T01:26:07.807Z,12.20
2018-09-17T01:28:35.003Z,12.20
2018-09-17T01:31:02.243Z,12.20
2018-09-17T01:33:29.459Z,12.20
2018-09-17T01:35:56.638Z,12.20
2018-09-17T01:38:23.911Z,12.20
2018-09-17T01:40:51.131Z,12.20
2018-09-17T01:43:18.397Z,12.20
2018-09-17T01:45:45.636Z,12.20
2018-09-17T01:48:12.854Z,12.20
2018-09-17T01:50:40.066Z,12.10
2018-09-17T01:53:07.292Z,12.10
2018-09-17T01:55:34.490Z,12.10
2018-09-17T01:58:01.725Z,12.10
2018-09-17T02:00:28.948Z,12.00
2018-09-17T02:02:56.167Z,12.00
2018-09-17T02:05:23.367Z,12.00
2018-09-17T02:07:50.584Z,12.00
2018-09-17T02:10:17.776Z,11.90
2018-09-17T02:12:44.974Z,11.90
2018-09-17T02:15:12.155Z,11.90
2018-09-17T02:17:39.367Z,11.90
2018-09-17T02:20:06.602Z,12.00
2018-09-17T02:22:33.791Z,11.90
2018-09-17T02:25:01.048Z,11.90
2018-09-17T02:27:28.288Z,12.00
2018-09-17T02:29:55.492Z,12.10
2018-09-17T02:32:22.686Z,11.80
2018-09-17T02:34:49.899Z,11.90
2018-09-17T02:37:17.107Z,11.80
2018-09-17T02:39:44.483Z,11.80
2018-09-17T02:42:11.747Z,11.80
2018-09-17T02:44:38.977Z,11.70
2018-09-17T02:47:06.183Z,11.70
2018-09-17T02:49:33.420Z,11.70
2018-09-17T02:52:00.610Z,11.80
2018-09-17T02:54:28.076Z,11.80
2018-09-17T02:56:55.267Z,11.90
2018-09-17T02:59:22.526Z,11.90
2018-09-17T03:01:49.733Z,11.80
2018-09-17T03:04:17.139Z,11.80
2018-09-17T03:06:44.343Z,11.80
2018-09-17T03:09:11.700Z,11.90
2018-09-17T03:11:38.913Z,11.90
2018-09-17T03:14:06.210Z,11.80
2018-09-17T03:16:35.175Z,11.80
2018-09-17T03:19:02.415Z,11.80
2018-09-17T03:21:29.639Z,11.80
2018-09-17T03:23:56.856Z,11.80
2018-09-17T03:26:24.064Z,11.80
2018-09-17T03:28:51.266Z,11.80
2018-09-17T03:31:18.512Z,11.80
2018-09-17T03:33:45.945Z,11.80
2018-09-17T03:36:13.218Z,11.80
2018-09-17T03:38:46.586Z,11.70
2018-09-17T03:41:14.427Z,11.70
2018-09-17T03:43:43.049Z,11.60
2018-09-17T03:46:10.313Z,11.60
2018-09-17T03:48:38.343Z,11.50
2018-09-17T03:51:06.303Z,11.50
2018-09-17T03:53:33.804Z,11.50
2018-09-17T03:56:01.066Z,11.60
2018-09-17T03:58:28.934Z,11.40
2018-09-17T04:00:56.193Z,11.60
2018-09-17T04:03:23.440Z,11.30
2018-09-17T04:05:50.693Z,11.40
2018-09-17T04:08:17.963Z,11.40
2018-09-17T04:10:45.195Z,11.30
2018-09-17T04:13:12.433Z,11.30
2018-09-17T04:18:13.392Z,11.20
2018-09-17T04:20:40.595Z,11.10
2018-09-17T04:23:07.947Z,11.10
2018-09-17T04:25:35.174Z,11.10
2018-09-17T04:28:02.363Z,11.10
2018-09-17T04:30:29.563Z,11.10
2018-09-17T04:32:57.275Z,11.10
2018-09-17T04:35:24.491Z,11.10
2018-09-17T04:37:51.719Z,11.10
2018-09-17T04:40:18.919Z,11.10
2018-09-17T04:42:46.104Z,11.10
2018-09-17T04:45:13.329Z,11.10
2018-09-17T04:47:40.548Z,11.10
2018-09-17T04:50:07.785Z,11.00
2018-09-17T04:52:35.000Z,11.00
2018-09-17T04:55:02.315Z,11.00
2018-09-17T04:57:29.724Z,11.00
2018-09-17T04:59:56.861Z,10.90
2018-09-17T05:02:24.078Z,10.90
2018-09-17T05:04:51.287Z,10.90
2018-09-17T05:07:18.997Z,10.90
2018-09-17T05:09:46.170Z,10.80
2018-09-17T05:12:13.364Z,10.80
2018-09-17T05:14:40.557Z,10.90
2018-09-17T05:17:07.763Z,10.80
2018-09-17T05:19:34.989Z,10.90
2018-09-17T05:22:02.197Z,10.90
2018-09-17T05:24:29.506Z,11.10
2018-09-17T05:26:56.832Z,11.00
2018-09-17T05:29:24.295Z,11.10
2018-09-17T05:31:51.607Z,11.20
2018-09-17T05:34:18.786Z,11.30
2018-09-17T05:36:46.014Z,11.40
2018-09-17T05:39:13.295Z,11.50
2018-09-17T05:41:40.519Z,11.60
2018-09-17T05:44:07.719Z,11.70
2018-09-17T05:46:35.066Z,11.90
2018-09-17T05:49:02.380Z,12.00
2018-09-17T05:51:29.598Z,12.20
2018-09-17T05:53:57.082Z,12.40
2018-09-17T05:56:24.067Z,12.60
2018-09-17T05:58:51.359Z,12.80
2018-09-17T06:01:18.578Z,12.90
2018-09-17T06:03:45.776Z,13.00
2018-09-17T06:06:12.989Z,13.00
2018-09-17T06:08:40.208Z,13.00
2018-09-17T06:11:07.482Z,13.10
2018-09-17T06:13:34.619Z,13.10
2018-09-17T06:16:01.820Z,13.10
2018-09-17T06:18:29.016Z,13.30
2018-09-17T06:20:56.219Z,13.40
2018-09-17T06:23:23.487Z,13.40
2018-09-17T06:25:50.631Z,13.40
2018-09-17T06:28:17.838Z,13.30
2018-09-17T06:30:45.047Z,13.40
2018-09-17T06:33:12.251Z,13.50
2018-09-17T06:35:39.455Z,13.60
2018-09-17T06:38:06.669Z,13.60
2018-09-17T06:40:33.868Z,13.80
2018-09-17T06:43:01.070Z,13.90
2018-09-17T06:45:28.247Z,14.10
2018-09-17T06:47:55.465Z,14.30
2018-09-17T06:50:22.751Z,14.40
2018-09-17T06:52:49.941Z,14.40
2018-09-17T06:55:17.127Z,14.60
2018-09-17T06:57:44.338Z,14.70
2018-09-17T07:00:11.526Z,14.90
2018-09-17T07:02:38.722Z,15.30
2018-09-17T07:05:05.963Z,15.80
2018-09-17T07:07:33.136Z,16.40
2018-09-17T07:10:00.339Z,16.80
2018-09-17T07:12:27.525Z,17.30
2018-09-17T07:14:54.727Z,17.90
2018-09-17T07:17:21.921Z,18.40
2018-09-17T07:19:49.095Z,19.00
2018-09-17T07:22:16.271Z,19.80
2018-09-17T07:24:43.483Z,20.40
2018-09-17T07:27:10.672Z,20.80
2018-09-17T07:29:37.851Z,21.20
2018-09-17T07:32:05.292Z,21.30
2018-09-17T07:34:32.495Z,21.80
2018-09-17T07:36:59.673Z,22.70
2018-09-17T07:39:26.858Z,23.10
2018-09-17T07:41:54.071Z,23.30
2018-09-17T07:44:21.239Z,23.40
2018-09-17T07:46:48.476Z,23.60
2018-09-17T07:49:15.797Z,24.40
2018-09-17T07:51:42.992Z,25.10
2018-09-17T07:54:10.209Z,25.80
2018-09-17T07:56:37.427Z,26.20
2018-09-17T07:59:04.667Z,26.40
2018-09-17T08:01:31.870Z,25.90
2018-09-17T08:03:59.079Z,26.40
2018-09-17T08:06:26.289Z,26.90
2018-09-17T08:13:48.303Z,28.40
2018-09-17T08:16:15.515Z,28.60
2018-09-17T08:18:42.711Z,28.80
2018-09-17T08:21:09.926Z,29.40
2018-09-17T08:23:37.129Z,28.70
2018-09-17T08:26:04.337Z,29.20
2018-09-17T08:28:31.594Z,30.20
2018-09-17T08:30:58.798Z,30.90
2018-09-17T08:33:26.027Z,31.10
2018-09-17T08:35:53.235Z,31.40
2018-09-17T08:38:20.495Z,32.20
2018-09-17T08:43:14.884Z,33.10
2018-09-17T08:45:42.142Z,33.50
2018-09-17T08:48:09.289Z,33.90
2018-09-17T08:50:36.494Z,34.30
2018-09-17T08:53:03.731Z,33.90
2018-09-17T08:55:36.591Z,33.70
2018-09-17T08:58:09.434Z,33.80
2018-09-17T09:00:42.250Z,34.20
2018-09-17T09:03:18.035Z,34.50
2018-09-17T09:05:52.039Z,35.50
2018-09-17T09:08:19.276Z,36.30
2018-09-17T11:33:47.168Z,44.50
2018-09-17T11:36:14.461Z,45.10
2018-09-17T11:38:41.720Z,45.40
2018-09-17T11:41:08.958Z,45.80
2018-09-17T11:43:36.142Z,46.60
2018-09-17T11:46:03.431Z,46.80
2018-09-17T11:48:30.624Z,45.80
2018-09-17T11:50:59.090Z,46.10
2018-09-17T11:53:26.280Z,46.60
2018-09-17T11:55:53.679Z,45.80
2018-09-17T11:58:20.878Z,44.40
2018-09-17T12:00:53.694Z,43.10
2018-09-17T12:05:58.035Z,43.20
2018-09-17T12:08:25.207Z,44.50
2018-09-17T12:10:52.490Z,43.70
2018-09-17T12:13:19.749Z,43.70
2018-09-17T12:18:14.184Z,38.30
2018-09-17T12:20:41.404Z,38.40
2018-09-17T12:23:09.187Z,38.80
2018-09-17T12:25:36.387Z,39.10
2018-09-17T12:28:03.736Z,39.60
2018-09-17T12:30:31.043Z,40.10
2018-09-17T12:32:58.245Z,40.90
2018-09-17T12:35:25.691Z,41.60
2018-09-17T12:37:53.054Z,42.40
2018-09-17T12:55:03.907Z,40.40
2018-09-17T12:57:31.147Z,40.10
2018-09-17T13:07:23.303Z,40.10
2018-09-17T13:09:50.516Z,40.80
2018-09-17T13:29:28.779Z,43.40
2018-09-17T13:36:51.673Z,43.40
2018-09-17T13:39:18.901Z,43.30
2018-09-17T13:44:13.372Z,45.30
2018-09-17T13:46:40.580Z,44.40
2018-09-17T13:49:07.837Z,43.60
2018-09-17T13:51:35.111Z,43.10
2018-09-17T13:54:02.340Z,42.40
2018-09-17T13:56:29.532Z,43.10
2018-09-17T13:58:56.799Z,43.40
2018-09-17T14:01:24.014Z,42.50
2018-09-17T14:03:51.258Z,42.00
2018-09-17T14:06:18.449Z,42.80
2018-09-17T14:08:45.679Z,44.10
2018-09-17T14:11:12.891Z,44.70
2018-09-17T14:13:40.078Z,43.80
2018-09-17T14:16:08.068Z,42.70
2018-09-17T14:18:35.651Z,42.80
2018-09-17T14:21:02.884Z,42.00
2018-09-17T14:23:30.091Z,42.10
2018-09-17T14:25:57.371Z,42.20
2018-09-17T14:28:24.554Z,43.30
2018-09-17T14:30:51.766Z,42.70
2018-09-17T14:33:24.603Z,44.20
2018-09-17T14:35:51.852Z,44.80
2018-09-17T14:38:19.067Z,44.70
2018-09-17T14:40:46.267Z,44.90
2018-09-17T14:43:13.495Z,44.90
2018-09-17T14:45:40.984Z,45.30
2018-09-17T14:50:37.755Z,45.60
2018-09-17T14:53:05.155Z,45.70
2018-09-17T14:55:32.359Z,45.50
2018-09-17T14:57:59.586Z,44.90
2018-09-17T15:00:26.788Z,44.70
2018-09-17T15:02:53.989Z,44.90
2018-09-17T15:05:21.266Z,44.70
2018-09-17T15:07:48.473Z,44.20
2018-09-17T15:10:15.723Z,43.30
2018-09-17T15:12:42.911Z,43.40
2018-09-17T15:15:10.270Z,44.00
2018-09-17T15:17:37.455Z,43.20
2018-09-17T15:20:04.712Z,43.00
2018-09-17T15:22:32.043Z,42.20
2018-09-17T15:24:59.145Z,42.30
2018-09-17T15:27:26.352Z,42.20
2018-09-17T15:29:53.577Z,42.70
2018-09-17T15:32:20.833Z,42.90
2018-09-17T15:34:47.968Z,42.50
2018-09-17T15:37:15.181Z,42.20
2018-09-17T15:39:42.379Z,41.90
2018-09-17T15:42:09.629Z,41.80
2018-09-17T15:44:36.838Z,41.10
2018-09-17T15:47:04.075Z,41.10
2018-09-17T15:49:31.255Z,41.10
2018-09-17T15:51:58.478Z,40.90
2018-09-17T15:54:25.784Z,40.90
2018-09-17T15:56:52.990Z,40.80
2018-09-17T16:06:42.063Z,39.00
2018-09-17T16:14:03.934Z,37.90
2018-09-17T16:18:58.284Z,36.80
2018-09-17T16:21:25.479Z,35.70
2018-09-17T16:26:19.866Z,34.80
2018-09-17T16:28:47.067Z,34.50
2018-09-17T16:31:14.276Z,34.00
2018-09-17T16:55:49.416Z,27.40
2018-09-17T16:58:16.664Z,27.20
2018-09-17T17:00:43.886Z,27.10
2018-09-17T17:03:11.072Z,26.80
2018-09-17T17:05:38.316Z,26.70
2018-09-17T17:10:34.500Z,26.00
2018-09-17T17:13:01.724Z,26.20
2018-09-17T17:17:56.151Z,25.60
2018-09-17T17:20:23.422Z,25.40
2018-09-17T17:22:50.632Z,25.20
2018-09-17T17:25:17.864Z,25.10
2018-09-17T17:30:14.575Z,24.50
2018-09-17T17:32:41.832Z,24.80
2018-09-17T17:35:09.063Z,24.20
2018-09-17T17:37:36.302Z,24.10
2018-09-17T17:40:04.054Z,23.90
2018-09-17T17:42:31.259Z,23.80
2018-09-17T17:44:58.485Z,23.70
2018-09-17T17:47:27.498Z,23.60
2018-09-17T17:49:54.728Z,23.30
2018-09-17T17:52:21.968Z,23.40
2018-09-17T17:57:16.384Z,23.00
2018-09-17T18:02:13.080Z,22.70
2018-09-17T18:04:40.300Z,22.60
2018-09-17T18:07:07.523Z,22.40
2018-09-17T18:09:34.803Z,22.40
2018-09-17T18:19:26.188Z,22.00
2018-09-17T18:21:53.495Z,21.70
2018-09-17T18:24:20.700Z,21.80
2018-09-17T18:26:48.117Z,21.70
2018-09-17T18:29:15.392Z,21.60
2018-09-17T18:31:42.692Z,21.50
2018-09-17T18:34:09.925Z,22.30
2018-09-17T18:36:37.226Z,21.20
2018-09-17T18:39:07.348Z,21.10
2018-09-17T18:41:34.546Z,21.00
2018-09-17T18:44:01.890Z,21.00
2018-09-17T18:46:29.088Z,21.10
2018-09-17T18:48:56.311Z,20.80
2018-09-17T18:51:23.590Z,21.10
2018-09-17T18:53:50.894Z,20.60
2018-09-17T18:56:18.218Z,20.50
2018-09-17T18:58:45.420Z,20.40
2018-09-17T19:01:12.680Z,20.30
2018-09-17T19:03:39.896Z,19.00
2018-09-17T19:06:07.276Z,20.20
2018-09-17T19:08:34.496Z,20.00
2018-09-17T19:11:01.767Z,20.70
2018-09-17T19:13:29.506Z,21.10
2018-09-17T19:15:57.727Z,19.80
2018-09-17T19:18:24.931Z,20.10
2018-09-17T19:20:52.681Z,19.50
2018-09-17T19:23:25.395Z,19.30
2018-09-17T19:25:53.481Z,19.50
2018-09-17T19:28:26.417Z,19.40
2018-09-17T19:30:53.619Z,19.40
2018-09-17T19:33:20.896Z,19.30
2018-09-17T19:38:21.257Z,19.10
2018-09-17T19:40:48.439Z,19.00
2018-09-17T19:43:15.695Z,19.00
2018-09-17T19:45:48.619Z,18.90
2018-09-17T19:48:15.838Z,18.90
2018-09-17T19:50:48.699Z,18.80
2018-09-17T19:53:15.914Z,18.90
2018-09-17T19:55:43.190Z,18.70
2018-09-17T19:58:16.093Z,18.70
2018-09-17T20:00:43.405Z,18.60
2018-09-17T20:03:10.602Z,17.70
2018-09-17T20:05:43.466Z,18.50
2018-09-17T20:08:10.701Z,18.40
2018-09-17T20:10:38.739Z,17.90
2018-09-17T20:13:05.951Z,18.40
2018-09-17T20:15:33.200Z,18.20
2018-09-17T20:18:00.411Z,18.20
2018-09-17T20:20:27.716Z,18.20
2018-09-17T20:24:13.011Z,18.50
2018-09-17T20:26:40.828Z,17.80
2018-09-17T20:29:13.352Z,18.00
2018-09-17T20:31:41.561Z,17.80
2018-09-17T20:34:09.899Z,17.60
2018-09-17T20:36:50.730Z,17.70
2018-09-17T20:39:20.056Z,19.40
2018-09-17T20:42:18.037Z,17.50
2018-09-17T20:44:46.078Z,17.50
2018-09-17T20:47:14.132Z,17.40
2018-09-17T20:49:42.770Z,17.30
2018-09-17T20:52:10.880Z,17.30
2018-09-17T20:54:39.907Z,17.30
2018-09-17T20:57:07.127Z,17.20
2018-09-17T20:59:38.236Z,17.00
2018-09-17T21:02:14.132Z,17.10
2018-09-17T21:04:44.383Z,17.10
2018-09-17T21:07:12.713Z,17.00
2018-09-17T21:09:41.143Z,17.50
2018-09-17T21:12:10.844Z,16.90
2018-09-17T21:14:39.152Z,16.80
2018-09-17T21:17:06.403Z,16.70
2018-09-17T21:19:33.765Z,16.60
2018-09-17T21:22:17.798Z,17.00
2018-09-17T21:24:46.163Z,16.50
2018-09-17T21:27:13.386Z,16.60
2018-09-17T21:29:40.643Z,16.60
2018-09-17T21:32:07.836Z,16.50
2018-09-17T21:34:35.044Z,16.80
2018-09-17T21:37:02.477Z,16.20
2018-09-17T21:39:29.541Z,16.30
2018-09-17T21:41:56.845Z,16.30
2018-09-17T21:44:24.121Z,16.30
2018-09-17T21:46:51.424Z,16.00
2018-09-17T21:49:18.679Z,16.20
2018-09-17T21:51:45.931Z,16.10
2018-09-17T21:54:13.151Z,16.70
2018-09-17T21:56:40.357Z,16.20
2018-09-17T21:59:07.608Z,16.10
2018-09-17T22:01:34.837Z,16.10
2018-09-17T22:04:02.200Z,16.00
2018-09-17T22:06:29.411Z,16.00
2018-09-17T22:08:56.647Z,16.00
2018-09-17T22:11:23.834Z,16.60
2018-09-17T22:13:51.039Z,16.10
2018-09-17T22:16:18.304Z,15.80
2018-09-17T22:18:45.584Z,15.80
2018-09-17T22:21:12.863Z,15.70
2018-09-17T22:23:40.108Z,15.70
2018-09-17T22:26:07.365Z,15.80
2018-09-17T22:28:34.603Z,15.70
2018-09-17T22:31:01.892Z,15.60
2018-09-17T22:33:29.123Z,15.60
2018-09-17T22:35:56.362Z,15.80
2018-09-17T22:38:23.564Z,16.00
2018-09-17T22:40:50.765Z,15.50
2018-09-17T22:43:18.017Z,15.50
2018-09-17T22:45:45.255Z,15.50
2018-09-17T22:48:12.521Z,15.40
2018-09-17T22:50:39.731Z,15.30
2018-09-17T22:53:06.964Z,15.30
2018-09-17T22:55:34.200Z,15.20
2018-09-17T22:58:01.408Z,15.20
2018-09-17T23:00:28.689Z,14.70
2018-09-17T23:02:55.888Z,15.10
2018-09-17T23:05:23.107Z,15.10
2018-09-17T23:07:50.329Z,15.00
2018-09-17T23:10:17.567Z,15.00
2018-09-17T23:12:44.782Z,15.00
2018-09-17T23:15:11.991Z,14.90
2018-09-17T23:17:39.183Z,15.20
2018-09-17T23:20:06.420Z,14.60
2018-09-17T23:22:33.692Z,14.60
2018-09-17T23:25:00.883Z,14.90
2018-09-17T23:27:28.107Z,14.80
2018-09-17T23:29:55.811Z,14.30
2018-09-17T23:32:23.051Z,14.80
2018-09-17T23:34:50.314Z,14.50
2018-09-17T23:37:17.747Z,14.50
2018-09-17T23:39:44.995Z,14.60
2018-09-17T23:42:12.274Z,14.40
2018-09-17T23:44:39.487Z,14.30
2018-09-17T23:47:07.014Z,14.60
2018-09-17T23:49:34.272Z,13.90
2018-09-17T23:52:01.528Z,14.10
2018-09-17T23:54:28.742Z,14.10
2018-09-17T23:56:55.970Z,14.10
2018-09-17T23:59:23.227Z,14.00
